createdAt,value
2017-09-13T00:02:11.276Z,81.30
2017-09-13T00:04:38.743Z,82.50
2017-09-13T00:07:06.256Z,82.40
2017-09-13T00:09:33.719Z,84.70
2017-09-13T00:12:01.188Z,85.60
2017-09-13T00:14:28.698Z,86.20
2017-09-13T00:16:56.950Z,83.30
2017-09-13T00:19:24.447Z,83.20
2017-09-13T00:21:52.679Z,79.30
2017-09-13T00:24:20.149Z,79.30
2017-09-13T00:26:47.645Z,78.10
2017-09-13T00:29:15.104Z,78.40
2017-09-13T00:31:42.615Z,79.10
2017-09-13T00:34:10.088Z,80.30
2017-09-13T00:36:37.556Z,81.10
2017-09-13T00:39:05.827Z,81.70
2017-09-13T00:41:33.296Z,81.70
2017-09-13T00:44:01.567Z,81.50
2017-09-13T00:46:29.828Z,79.00
2017-09-13T00:48:57.286Z,79.00
2017-09-13T00:51:24.800Z,78.60
2017-09-13T00:53:52.264Z,78.20
2017-09-13T00:56:19.751Z,77.90
2017-09-13T00:58:47.225Z,79.10
2017-09-13T01:01:14.710Z,83.20
2017-09-13T01:03:42.973Z,86.10
2017-09-13T01:06:10.468Z,86.00
2017-09-13T01:08:37.970Z,86.30
2017-09-13T01:11:05.456Z,86.30
2017-09-13T01:13:33.778Z,86.80
2017-09-13T01:16:01.235Z,86.80
2017-09-13T01:18:28.710Z,85.40
2017-09-13T01:20:56.201Z,83.00
2017-09-13T01:23:23.703Z,82.40
2017-09-13T01:25:51.191Z,81.80
2017-09-13T01:28:18.661Z,81.30
2017-09-13T01:30:46.157Z,81.60
2017-09-13T01:33:14.379Z,81.40
2017-09-13T01:35:41.899Z,81.50
2017-09-13T01:38:10.139Z,85.40
2017-09-13T01:40:39.101Z,86.90
2017-09-13T01:43:06.586Z,86.90
2017-09-13T01:45:34.050Z,87.50
2017-09-13T01:48:01.571Z,88.10
2017-09-13T01:50:29.043Z,88.50
2017-09-13T01:52:56.532Z,88.50
2017-09-13T01:55:24.014Z,88.60
2017-09-13T01:57:52.246Z,87.50
2017-09-13T02:00:19.740Z,87.50
2017-09-13T02:02:47.966Z,87.50
2017-09-13T02:05:15.464Z,87.50
2017-09-13T02:07:42.925Z,86.80
2017-09-13T02:10:11.159Z,87.20
2017-09-13T02:12:38.670Z,87.10
2017-09-13T02:15:06.888Z,87.10
2017-09-13T02:17:34.390Z,87.10
2017-09-13T02:20:01.848Z,86.80
2017-09-13T02:22:30.079Z,87.50
2017-09-13T02:24:57.592Z,87.50
2017-09-13T02:27:25.814Z,86.90
2017-09-13T02:29:53.316Z,86.90
2017-09-13T02:32:20.788Z,88.10
2017-09-13T02:34:49.031Z,87.40
2017-09-13T02:37:16.536Z,87.30
2017-09-13T02:39:44.016Z,87.10
2017-09-13T02:42:11.520Z,87.90
2017-09-13T02:44:38.981Z,87.70
2017-09-13T02:47:06.440Z,87.60
2017-09-13T02:49:33.919Z,87.60
2017-09-13T02:52:02.176Z,87.60
2017-09-13T02:54:29.671Z,87.60
2017-09-13T02:56:57.149Z,89.40
2017-09-13T02:59:24.607Z,89.20
2017-09-13T03:01:52.091Z,89.30
2017-09-13T03:04:19.574Z,89.60
2017-09-13T03:06:47.835Z,89.20
2017-09-13T03:09:15.296Z,89.10
2017-09-13T03:11:42.769Z,89.50
2017-09-13T03:14:10.271Z,89.30
2017-09-13T03:16:37.739Z,89.30
2017-09-13T03:19:05.235Z,89.20
2017-09-13T03:21:32.729Z,88.90
2017-09-13T03:24:00.215Z,89.00
2017-09-13T03:26:27.672Z,88.70
2017-09-13T03:28:55.135Z,89.00
2017-09-13T03:31:22.628Z,89.10
2017-09-13T03:33:50.099Z,89.30
2017-09-13T03:36:18.320Z,88.70
2017-09-13T03:38:45.829Z,88.80
2017-09-13T03:41:13.287Z,88.90
2017-09-13T03:43:40.806Z,88.90
2017-09-13T03:46:08.289Z,88.80
2017-09-13T03:48:35.783Z,89.10
2017-09-13T03:51:03.259Z,89.60
2017-09-13T03:53:30.750Z,89.70
2017-09-13T03:55:58.229Z,89.70
2017-09-13T03:58:25.697Z,89.70
2017-09-13T04:00:53.958Z,89.30
2017-09-13T04:03:21.434Z,89.30
2017-09-13T04:05:49.682Z,88.50
2017-09-13T04:08:17.167Z,88.50
2017-09-13T04:10:45.443Z,88.90
2017-09-13T04:13:13.677Z,88.60
2017-09-13T04:15:41.755Z,88.50
2017-09-13T04:18:09.252Z,88.40
2017-09-13T04:20:37.484Z,89.00
2017-09-13T04:23:04.974Z,89.00
2017-09-13T04:25:32.455Z,88.60
2017-09-13T04:28:00.678Z,88.60
2017-09-13T04:30:28.191Z,88.60
2017-09-13T04:32:56.423Z,87.70
2017-09-13T04:35:23.936Z,87.70
2017-09-13T04:37:52.158Z,87.70
2017-09-13T04:40:19.627Z,87.70
2017-09-13T04:42:47.146Z,86.50
2017-09-13T04:45:14.622Z,87.20
2017-09-13T04:47:42.119Z,87.60
2017-09-13T04:50:09.616Z,88.70
2017-09-13T04:52:37.091Z,88.10
2017-09-13T04:55:04.614Z,86.70
2017-09-13T04:57:32.850Z,86.10
2017-09-13T05:00:00.316Z,86.10
2017-09-13T05:02:27.807Z,86.60
2017-09-13T05:04:56.041Z,87.30
2017-09-13T05:07:23.522Z,87.20
2017-09-13T05:09:51.764Z,84.20
2017-09-13T05:12:19.308Z,84.10
2017-09-13T05:14:46.771Z,82.50
2017-09-13T05:17:14.280Z,82.00
2017-09-13T05:19:42.556Z,80.40
2017-09-13T05:22:10.831Z,80.10
2017-09-13T05:24:38.363Z,80.10
2017-09-13T05:27:05.824Z,81.70
2017-09-13T05:29:33.304Z,78.30
2017-09-13T05:32:01.580Z,79.60
2017-09-13T05:34:29.058Z,79.60
2017-09-13T05:36:57.308Z,76.40
2017-09-13T05:39:24.818Z,76.40
2017-09-13T05:41:52.310Z,78.20
2017-09-13T05:44:19.811Z,78.50
2017-09-13T05:46:47.335Z,77.60
2017-09-13T05:49:14.800Z,78.20
2017-09-13T05:51:42.364Z,78.40
2017-09-13T05:54:09.879Z,76.90
2017-09-13T05:56:37.437Z,75.80
2017-09-13T05:59:04.930Z,77.00
2017-09-13T06:01:32.414Z,77.10
2017-09-13T06:04:00.685Z,76.20
2017-09-13T06:06:28.970Z,77.40
2017-09-13T06:08:57.247Z,73.60
2017-09-13T06:11:25.531Z,74.60
2017-09-13T06:13:53.771Z,75.00
2017-09-13T06:16:21.274Z,75.00
2017-09-13T06:18:48.755Z,72.30
2017-09-13T06:21:17.195Z,73.10
2017-09-13T06:23:45.450Z,71.00
2017-09-13T06:26:12.940Z,71.00
2017-09-13T06:28:41.191Z,73.10
2017-09-13T06:31:08.699Z,73.10
2017-09-13T06:33:36.318Z,71.30
2017-09-13T06:36:03.813Z,72.20
2017-09-13T06:38:31.307Z,70.20
2017-09-13T06:40:58.844Z,70.30
2017-09-13T06:43:26.311Z,69.60
2017-09-13T06:45:53.840Z,68.30
2017-09-13T06:48:22.071Z,67.50
2017-09-13T06:50:49.552Z,67.50
2017-09-13T06:53:17.032Z,68.60
2017-09-13T06:55:44.507Z,67.40
2017-09-13T06:58:12.127Z,66.10
2017-09-13T07:00:39.604Z,66.70
2017-09-13T07:03:07.869Z,64.90
2017-09-13T07:05:35.369Z,64.90
2017-09-13T07:08:02.912Z,65.00
2017-09-13T07:10:31.175Z,65.60
2017-09-13T07:12:59.411Z,66.50
2017-09-13T07:15:26.911Z,66.40
2017-09-13T07:17:55.182Z,65.90
2017-09-13T07:20:22.651Z,65.90
2017-09-13T07:22:50.932Z,65.90
2017-09-13T07:25:19.208Z,64.50
2017-09-13T07:27:47.464Z,64.60
2017-09-13T07:30:14.944Z,64.60
2017-09-13T07:32:43.220Z,64.80
2017-09-13T07:35:11.490Z,64.80
2017-09-13T07:37:39.715Z,63.70
2017-09-13T07:40:07.214Z,63.70
2017-09-13T07:42:35.456Z,64.10
2017-09-13T07:45:02.970Z,64.10
2017-09-13T07:47:30.840Z,64.20
2017-09-13T07:49:58.307Z,64.10
2017-09-13T07:52:25.825Z,64.00
2017-09-13T07:54:54.086Z,64.00
2017-09-13T07:57:21.592Z,64.10
2017-09-13T07:59:49.103Z,63.00
2017-09-13T08:02:16.633Z,63.10
2017-09-13T08:04:44.144Z,63.00
2017-09-13T08:07:11.612Z,62.20
2017-09-13T08:09:39.886Z,63.40
2017-09-13T08:12:08.150Z,63.30
2017-09-13T08:14:35.627Z,63.30
2017-09-13T08:17:03.891Z,62.30
2017-09-13T08:19:32.148Z,61.90
2017-09-13T08:21:59.647Z,61.80
2017-09-13T08:24:27.888Z,64.10
2017-09-13T08:26:55.436Z,64.10
2017-09-13T08:29:22.916Z,64.30
2017-09-13T08:31:50.419Z,66.70
2017-09-13T08:34:17.951Z,64.10
2017-09-13T08:36:46.205Z,64.40
2017-09-13T08:39:13.691Z,64.40
2017-09-13T08:41:41.964Z,64.60
2017-09-13T08:44:10.241Z,64.60
2017-09-13T08:46:38.484Z,63.40
2017-09-13T08:49:05.999Z,63.30
2017-09-13T08:51:33.511Z,64.10
2017-09-13T08:54:01.000Z,64.10
2017-09-13T08:56:29.300Z,62.50
2017-09-13T08:58:56.819Z,62.40
2017-09-13T09:01:24.334Z,61.90
2017-09-13T09:03:51.848Z,63.00
2017-09-13T09:06:20.084Z,62.00
2017-09-13T09:08:47.612Z,61.90
2017-09-13T09:11:15.078Z,62.20
2017-09-13T09:13:42.557Z,62.20
2017-09-13T09:16:10.070Z,62.30
2017-09-13T09:18:38.327Z,62.20
2017-09-13T09:21:05.833Z,62.20
2017-09-13T09:23:33.315Z,60.80
2017-09-13T09:26:00.818Z,61.40
2017-09-13T09:28:29.081Z,61.50
2017-09-13T09:30:57.331Z,61.20
2017-09-13T09:33:24.858Z,61.30
2017-09-13T09:35:52.331Z,61.30
2017-09-13T09:38:19.852Z,61.40
2017-09-13T09:40:48.074Z,61.20
2017-09-13T09:43:15.564Z,61.10
2017-09-13T09:45:43.822Z,60.90
2017-09-13T09:48:11.318Z,60.90
2017-09-13T09:50:39.607Z,61.30
2017-09-13T09:53:07.832Z,61.30
2017-09-13T09:55:35.360Z,61.30
2017-09-13T09:58:02.826Z,61.20
2017-09-13T10:00:30.316Z,61.80
2017-09-13T10:02:57.814Z,61.50
2017-09-13T10:05:26.054Z,61.90
2017-09-13T10:07:53.547Z,61.90
2017-09-13T10:10:21.784Z,62.30
2017-09-13T10:12:50.061Z,62.10
2017-09-13T10:15:17.568Z,62.00
2017-09-13T10:17:45.047Z,62.30
2017-09-13T10:20:12.541Z,62.50
2017-09-13T10:22:40.036Z,62.40
2017-09-13T10:25:08.326Z,62.80
2017-09-13T10:27:35.797Z,62.80
2017-09-13T10:30:03.273Z,63.60
2017-09-13T10:32:30.784Z,62.50
2017-09-13T10:34:59.059Z,63.00
2017-09-13T10:37:27.315Z,63.80
2017-09-13T10:39:56.310Z,63.60
2017-09-13T10:42:23.838Z,63.60
2017-09-13T10:44:51.312Z,63.60
2017-09-13T10:47:18.792Z,64.80
2017-09-13T10:49:46.294Z,64.30
2017-09-13T10:52:13.769Z,64.00
2017-09-13T10:54:41.271Z,63.50
2017-09-13T10:57:10.247Z,63.70
2017-09-13T10:59:37.762Z,63.70
2017-09-13T11:02:05.234Z,64.40
2017-09-13T11:04:32.730Z,63.90
2017-09-13T11:07:00.219Z,64.30
2017-09-13T11:09:28.472Z,64.20
2017-09-13T11:11:56.744Z,63.60
2017-09-13T11:14:25.071Z,64.00
2017-09-13T11:16:52.553Z,64.00
2017-09-13T11:19:20.047Z,64.30
2017-09-13T11:21:49.017Z,64.50
2017-09-13T11:24:16.526Z,64.50
2017-09-13T11:26:43.998Z,65.00
2017-09-13T11:29:11.536Z,65.60
2017-09-13T11:31:39.772Z,65.60
2017-09-13T11:34:07.278Z,65.60
2017-09-13T11:36:34.751Z,65.50
2017-09-13T11:39:02.219Z,66.30
2017-09-13T11:41:29.723Z,65.20
2017-09-13T11:43:57.978Z,65.20
2017-09-13T11:46:25.467Z,65.20
2017-09-13T11:48:53.691Z,65.00
2017-09-13T11:51:21.238Z,65.10
2017-09-13T11:53:48.739Z,64.50
2017-09-13T11:56:16.224Z,64.70
2017-09-13T11:58:44.465Z,63.60
2017-09-13T12:01:12.016Z,63.50
2017-09-13T12:03:39.496Z,62.10
2017-09-13T12:06:07.724Z,61.10
2017-09-13T12:08:35.219Z,61.10
2017-09-13T12:11:02.683Z,61.60
2017-09-13T12:13:30.211Z,61.80
2017-09-13T12:15:57.692Z,60.50
2017-09-13T12:18:25.151Z,60.60
2017-09-13T12:20:52.674Z,60.30
2017-09-13T12:23:20.144Z,60.40
2017-09-13T12:25:47.668Z,60.40
2017-09-13T12:28:15.920Z,60.80
2017-09-13T12:30:43.375Z,60.80
2017-09-13T12:33:11.644Z,60.70
2017-09-13T12:35:39.129Z,60.70
2017-09-13T12:38:06.627Z,61.40
2017-09-13T12:40:34.118Z,61.30
2017-09-13T12:43:01.621Z,61.50
2017-09-13T12:45:29.849Z,61.30
2017-09-13T12:47:57.367Z,61.30
2017-09-13T12:50:24.839Z,62.30
2017-09-13T12:52:52.321Z,62.00
2017-09-13T12:55:19.836Z,61.70
2017-09-13T12:57:48.076Z,62.10
2017-09-13T13:00:15.580Z,62.10
2017-09-13T13:02:43.052Z,61.70
2017-09-13T13:05:10.537Z,63.10
2017-09-13T13:07:38.012Z,62.20
2017-09-13T13:10:05.531Z,62.70
2017-09-13T13:12:33.008Z,62.60
2017-09-13T13:15:00.491Z,61.80
2017-09-13T13:17:28.760Z,61.70
2017-09-13T13:19:57.748Z,61.90
2017-09-13T13:22:25.220Z,62.00
2017-09-13T13:24:53.510Z,61.10
2017-09-13T13:27:20.967Z,61.10
2017-09-13T13:29:49.262Z,62.50
2017-09-13T13:32:17.511Z,62.00
2017-09-13T13:34:46.531Z,61.90
2017-09-13T13:37:14.788Z,61.80
2017-09-13T13:39:42.248Z,61.80
2017-09-13T13:42:09.745Z,62.60
2017-09-13T13:44:37.215Z,61.50
2017-09-13T13:47:04.700Z,62.10
2017-09-13T13:49:32.183Z,61.60
2017-09-13T13:51:59.720Z,61.30
2017-09-13T13:54:27.200Z,62.30
2017-09-13T13:56:54.656Z,61.60
2017-09-13T13:59:22.189Z,61.20
2017-09-13T14:01:49.639Z,61.40
2017-09-13T14:04:17.161Z,61.30
2017-09-13T14:06:45.664Z,61.60
2017-09-13T14:09:13.125Z,61.60
2017-09-13T14:11:40.631Z,61.80
2017-09-13T14:27:13.911Z,62.10
2017-09-13T14:29:41.391Z,62.00
2017-09-13T14:32:09.684Z,61.80
2017-09-13T14:34:37.147Z,61.80
2017-09-13T14:37:04.627Z,62.30
2017-09-13T14:39:32.095Z,62.40
2017-09-13T14:41:59.577Z,62.30
2017-09-13T14:44:27.067Z,62.40
2017-09-13T14:46:54.556Z,62.80
2017-09-13T14:49:22.090Z,63.10
2017-09-13T14:51:50.315Z,63.50
2017-09-13T14:54:18.731Z,63.50
2017-09-13T14:56:46.996Z,66.80
2017-09-13T14:59:15.243Z,68.40
2017-09-13T15:01:42.756Z,68.30
2017-09-13T15:04:10.976Z,73.50
2017-09-13T15:06:38.494Z,73.40
2017-09-13T15:09:06.733Z,75.90
2017-09-13T15:11:34.199Z,75.80
2017-09-13T15:14:01.687Z,75.70
2017-09-13T15:16:29.139Z,77.00
2017-09-13T15:18:56.635Z,78.50
2017-09-13T15:21:24.108Z,80.50
2017-09-13T15:23:51.648Z,82.40
2017-09-13T15:26:19.141Z,84.40
2017-09-13T15:28:46.640Z,85.60
2017-09-13T15:31:14.907Z,87.30
2017-09-13T15:33:43.143Z,89.30
2017-09-13T15:36:10.707Z,89.30
2017-09-13T17:14:26.691Z,91.80
2017-09-13T17:16:54.964Z,92.00
2017-09-13T17:19:22.418Z,92.00
2017-09-13T17:21:49.887Z,92.10
2017-09-13T17:24:18.163Z,92.00
2017-09-13T17:26:46.419Z,91.90
2017-09-13T17:29:13.890Z,91.90
2017-09-13T17:31:42.149Z,91.90
2017-09-13T17:34:09.644Z,91.90
2017-09-13T17:36:37.922Z,91.80
2017-09-13T17:39:06.231Z,91.70
2017-09-13T17:41:33.703Z,91.70
2017-09-13T17:44:01.188Z,91.70
2017-09-13T17:46:28.708Z,91.60
2017-09-13T17:48:56.171Z,91.80
2017-09-13T17:51:23.660Z,91.50
2017-09-13T17:53:51.142Z,91.30
2017-09-13T17:56:19.423Z,91.50
2017-09-13T17:58:47.683Z,91.40
2017-09-13T18:01:15.281Z,91.40
2017-09-13T18:03:42.780Z,91.70
2017-09-13T18:06:10.269Z,91.80
2017-09-13T18:08:38.523Z,91.90
2017-09-13T18:11:05.989Z,91.90
2017-09-13T18:13:33.481Z,92.00
2017-09-13T18:16:01.727Z,92.10
2017-09-13T18:18:29.208Z,92.10
2017-09-13T18:20:57.467Z,91.90
2017-09-13T18:23:25.706Z,92.10
2017-09-13T18:25:53.195Z,92.10
2017-09-13T18:28:20.655Z,92.20
2017-09-13T18:30:48.190Z,92.00
2017-09-13T18:33:15.699Z,92.00
2017-09-13T18:35:43.934Z,92.10
2017-09-13T18:38:11.438Z,92.10
2017-09-13T18:40:39.661Z,91.90
2017-09-13T18:43:07.180Z,91.80
2017-09-13T18:45:34.644Z,92.00
2017-09-13T18:48:02.111Z,92.10
2017-09-13T18:50:29.643Z,91.80
2017-09-13T18:52:57.899Z,91.60
2017-09-13T18:55:25.374Z,91.60
2017-09-13T18:57:53.659Z,92.00
2017-09-13T19:00:21.958Z,91.50
2017-09-13T19:02:49.431Z,91.50
2017-09-13T19:05:16.918Z,91.60
2017-09-13T19:07:44.419Z,91.20
2017-09-13T19:10:11.888Z,91.40
2017-09-13T19:12:39.397Z,91.40
2017-09-13T19:15:06.878Z,91.40
2017-09-13T19:17:35.168Z,91.20
2017-09-13T19:20:02.654Z,91.20
2017-09-13T19:22:30.136Z,90.70
2017-09-13T19:24:57.638Z,91.30
2017-09-13T19:27:25.870Z,90.90
2017-09-13T19:29:53.366Z,90.80
2017-09-13T19:32:21.609Z,91.10
2017-09-13T19:34:49.071Z,91.10
2017-09-13T19:37:16.564Z,91.20
2017-09-13T19:39:44.792Z,91.40
2017-09-13T19:42:12.316Z,91.40
2017-09-13T19:44:39.789Z,91.10
2017-09-13T19:47:07.255Z,90.30
2017-09-13T19:49:34.747Z,90.80
2017-09-13T19:52:02.212Z,90.60
2017-09-13T19:54:29.772Z,90.50
2017-09-13T19:56:58.020Z,89.80
2017-09-13T19:59:25.565Z,89.70
2017-09-13T20:01:53.069Z,89.70
2017-09-13T20:04:21.350Z,89.30
2017-09-13T20:06:48.898Z,89.20
2017-09-13T20:09:17.881Z,86.90
2017-09-13T20:11:45.352Z,86.90
2017-09-13T20:14:12.843Z,87.60
2017-09-13T20:16:40.319Z,85.90
2017-09-13T20:19:07.860Z,86.00
2017-09-13T20:21:36.113Z,83.90
2017-09-13T20:24:03.576Z,83.90
2017-09-13T20:26:32.815Z,82.50
2017-09-13T20:29:00.319Z,82.50
2017-09-13T20:31:27.807Z,83.20
2017-09-13T20:33:56.047Z,83.60
2017-09-13T20:36:25.208Z,84.50
2017-09-13T20:38:52.701Z,84.50
2017-09-13T20:41:20.159Z,85.90
2017-09-13T20:43:47.624Z,85.20
2017-09-13T20:46:15.891Z,82.20
2017-09-13T20:48:43.434Z,82.20
2017-09-13T20:51:10.908Z,83.90
2017-09-13T20:53:38.376Z,83.50
2017-09-13T20:56:06.641Z,81.20
2017-09-13T20:58:34.141Z,81.20
2017-09-13T21:01:01.650Z,81.40
2017-09-13T21:03:29.138Z,80.80
2017-09-13T21:05:56.715Z,81.30
2017-09-13T21:08:24.974Z,79.60
2017-09-13T21:10:52.438Z,79.60
2017-09-13T21:13:19.919Z,78.30
2017-09-13T21:15:47.391Z,79.60
2017-09-13T21:18:14.909Z,79.50
2017-09-13T21:20:43.148Z,78.70
2017-09-13T21:23:10.609Z,78.70
2017-09-13T21:25:38.099Z,78.40
2017-09-13T21:28:07.059Z,76.00
2017-09-13T21:30:34.531Z,76.10
2017-09-13T21:33:02.007Z,77.20
2017-09-13T21:35:29.476Z,77.30
2017-09-13T21:37:57.004Z,77.60
2017-09-13T21:40:24.467Z,77.30
2017-09-13T21:42:51.960Z,77.80
2017-09-13T21:45:20.209Z,75.70
2017-09-13T21:47:47.700Z,75.60
2017-09-13T21:50:15.937Z,74.60
2017-09-13T21:52:43.406Z,74.40
2017-09-13T21:55:10.903Z,75.00
2017-09-13T21:57:39.127Z,74.80
2017-09-13T22:00:06.640Z,74.70
2017-09-13T22:02:34.114Z,75.20
2017-09-13T22:05:01.581Z,73.90
2017-09-13T22:07:29.071Z,73.50
2017-09-13T22:09:56.559Z,72.90
2017-09-13T22:12:24.796Z,73.20
2017-09-13T22:14:52.286Z,73.10
2017-09-13T22:17:20.559Z,73.20
2017-09-13T22:19:48.016Z,73.20
2017-09-13T22:22:15.504Z,73.80
2017-09-13T22:24:43.006Z,72.80
2017-09-13T22:27:10.490Z,72.80
2017-09-13T22:29:37.982Z,72.70
2017-09-13T22:32:05.451Z,72.80
2017-09-13T22:34:32.967Z,73.00
2017-09-13T22:37:01.207Z,74.30
2017-09-13T22:39:28.679Z,74.30
2017-09-13T22:41:56.166Z,74.70
2017-09-13T22:44:23.667Z,72.70
2017-09-13T22:46:51.167Z,73.60
2017-09-13T22:49:18.643Z,73.70
2017-09-13T22:51:46.106Z,72.20
2017-09-13T22:54:14.388Z,71.50
2017-09-13T22:56:42.611Z,72.10
2017-09-13T22:59:10.075Z,72.00
2017-09-13T23:01:37.607Z,72.30
2017-09-13T23:04:05.099Z,72.60
2017-09-13T23:06:32.554Z,72.10
2017-09-13T23:09:00.055Z,72.60
2017-09-13T23:11:28.329Z,71.80
2017-09-13T23:13:56.584Z,72.30
2017-09-13T23:16:24.809Z,72.70
2017-09-13T23:18:52.293Z,72.60
2017-09-13T23:21:19.784Z,72.70
2017-09-13T23:23:47.267Z,72.40
2017-09-13T23:26:16.441Z,72.40
2017-09-13T23:28:45.428Z,72.00
2017-09-13T23:31:12.895Z,72.00
2017-09-13T23:33:40.393Z,71.40
2017-09-13T23:36:07.890Z,71.40
2017-09-13T23:38:35.356Z,71.80
2017-09-13T23:41:02.870Z,72.60
2017-09-13T23:43:30.400Z,71.20
2017-09-13T23:45:58.640Z,72.90
2017-09-13T23:48:26.111Z,72.90
2017-09-13T23:50:54.382Z,72.10
2017-09-13T23:53:21.839Z,72.10
2017-09-13T23:55:49.348Z,72.10
2017-09-13T23:58:17.578Z,72.90
